createdAt,value
2023-01-31T00:01:39.990Z,41.65
2023-01-31T00:04:12.440Z,42.45
2023-01-31T00:06:41.918Z,33.63
2023-01-31T00:09:10.570Z,31.88
2023-01-31T00:11:37.750Z,44.47
2023-01-31T00:14:05.906Z,40.70
2023-01-31T00:16:33.343Z,42.47
2023-01-31T00:19:00.547Z,41.97
2023-01-31T00:21:29.254Z,41.97
2023-01-31T00:23:57.233Z,38.28
2023-01-31T00:26:34.997Z,39.13
2023-01-31T00:29:03.819Z,36.60
2023-01-31T00:31:32.493Z,36.10
2023-01-31T00:34:00.366Z,38.20
2023-01-31T00:36:33.298Z,40.50
2023-01-31T00:39:02.417Z,43.35
2023-01-31T00:41:31.187Z,37.47
2023-01-31T00:43:58.475Z,38.97
2023-01-31T00:46:25.792Z,41.63
2023-01-31T00:48:53.455Z,51.78
2023-01-31T00:51:20.839Z,43.75
2023-01-31T00:53:48.842Z,41.38
2023-01-31T00:56:22.903Z,45.00
2023-01-31T00:58:50.684Z,46.85
2023-01-31T01:01:23.890Z,38.65
2023-01-31T01:03:52.230Z,31.83
2023-01-31T01:06:20.383Z,42.38
2023-01-31T01:08:48.165Z,40.65
2023-01-31T01:11:19.961Z,42.00
2023-01-31T01:13:47.524Z,36.58
2023-01-31T01:16:23.197Z,38.22
2023-01-31T01:18:50.956Z,35.33
2023-01-31T01:21:20.578Z,41.28
2023-01-31T01:23:48.122Z,36.90
2023-01-31T01:26:18.058Z,35.53
2023-01-31T01:28:45.851Z,35.58
2023-01-31T01:31:14.337Z,33.28
2023-01-31T01:33:41.334Z,37.15
2023-01-31T01:36:13.313Z,39.33
2023-01-31T01:38:42.274Z,34.47
2023-01-31T01:41:10.293Z,43.50
2023-01-31T01:43:41.236Z,36.13
2023-01-31T01:46:11.157Z,33.63
2023-01-31T01:48:38.855Z,37.33
2023-01-31T01:51:07.082Z,41.67
2023-01-31T01:53:38.783Z,34.45
2023-01-31T01:56:16.403Z,43.70
2023-01-31T01:58:55.880Z,38.45
2023-01-31T02:01:24.865Z,33.38
2023-01-31T02:03:52.999Z,32.28
2023-01-31T02:06:20.819Z,32.17
2023-01-31T02:08:48.023Z,33.47
2023-01-31T02:11:30.785Z,34.03
2023-01-31T02:14:03.990Z,37.38
2023-01-31T02:16:33.914Z,37.17
2023-01-31T02:19:01.273Z,35.65
2023-01-31T02:21:46.299Z,41.20
2023-01-31T02:24:22.074Z,39.03
2023-01-31T02:27:10.623Z,31.33
2023-01-31T02:30:10.548Z,35.95
2023-01-31T02:32:37.488Z,30.83
2023-01-31T02:35:10.307Z,31.80
2023-01-31T02:38:08.920Z,34.92
2023-01-31T02:40:39.047Z,33.40
2023-01-31T02:43:17.959Z,39.22
2023-01-31T02:46:08.990Z,32.45
2023-01-31T02:48:42.513Z,39.05
2023-01-31T02:51:23.021Z,39.72
2023-01-31T02:54:01.470Z,38.72
2023-01-31T02:56:33.388Z,38.08
2023-01-31T02:59:22.236Z,32.35
2023-01-31T03:01:58.830Z,39.13
2023-01-31T03:04:31.828Z,44.08
2023-01-31T03:07:04.788Z,37.33
2023-01-31T03:09:47.201Z,45.35
2023-01-31T03:12:38.820Z,44.40
2023-01-31T03:15:20.619Z,35.15
2023-01-31T03:17:52.714Z,28.73
2023-01-31T03:21:04.607Z,30.88
2023-01-31T03:23:35.883Z,35.28
2023-01-31T03:26:06.824Z,29.80
2023-01-31T03:28:37.139Z,37.67
2023-01-31T03:31:40.138Z,42.75
2023-01-31T03:34:11.568Z,34.55
2023-01-31T03:36:56.655Z,33.38
2023-01-31T03:40:00.308Z,38.17
2023-01-31T03:42:53.023Z,35.10
2023-01-31T03:45:44.137Z,32.42
2023-01-31T03:48:14.753Z,35.03
2023-01-31T03:50:51.531Z,36.78
2023-01-31T03:53:29.832Z,32.35
2023-01-31T03:56:18.621Z,42.58
2023-01-31T03:58:50.934Z,35.63
2023-01-31T04:01:19.937Z,31.70
2023-01-31T04:03:55.256Z,33.13
2023-01-31T04:08:49.295Z,30.55
2023-01-31T04:11:20.315Z,24.55
2023-01-31T04:13:47.549Z,34.30
2023-01-31T04:16:14.678Z,35.30
2023-01-31T04:18:41.687Z,24.40
2023-01-31T04:21:09.880Z,39.28
2023-01-31T04:23:37.075Z,38.13
2023-01-31T04:26:04.073Z,37.58
2023-01-31T04:28:31.041Z,27.48
2023-01-31T04:30:58.000Z,32.92
2023-01-31T04:33:24.988Z,30.65
2023-01-31T04:35:52.618Z,29.67
2023-01-31T04:38:19.549Z,34.50
2023-01-31T04:40:46.739Z,30.30
2023-01-31T04:43:14.237Z,26.67
2023-01-31T04:45:41.061Z,38.40
2023-01-31T04:48:08.858Z,22.58
2023-01-31T04:50:35.744Z,29.50
2023-01-31T04:53:03.038Z,31.25
2023-01-31T04:55:29.897Z,31.15
2023-01-31T04:57:56.824Z,36.35
2023-01-31T05:00:23.754Z,26.45
2023-01-31T05:02:50.910Z,29.88
2023-01-31T05:05:18.101Z,31.08
2023-01-31T05:07:45.397Z,33.45
2023-01-31T05:10:12.931Z,29.10
2023-01-31T05:12:40.069Z,29.85
2023-01-31T05:15:11.680Z,28.25
2023-01-31T05:17:39.182Z,30.83
2023-01-31T05:20:06.758Z,23.60
2023-01-31T05:22:33.942Z,35.22
2023-01-31T05:25:00.951Z,27.73
2023-01-31T05:27:28.041Z,36.15
2023-01-31T05:29:55.172Z,27.85
2023-01-31T05:32:22.265Z,18.95
2023-01-31T05:34:49.148Z,41.72
2023-01-31T05:37:16.082Z,26.48
2023-01-31T05:39:43.109Z,22.90
2023-01-31T05:42:10.270Z,26.33
2023-01-31T05:44:37.298Z,25.42
2023-01-31T05:47:04.288Z,24.73
2023-01-31T05:49:33.476Z,20.42
2023-01-31T05:52:01.260Z,28.33
2023-01-31T05:54:28.260Z,28.25
2023-01-31T05:56:55.194Z,22.48
2023-01-31T05:59:22.116Z,27.35
2023-01-31T06:01:49.116Z,23.90
2023-01-31T06:04:16.132Z,28.67
2023-01-31T06:06:44.702Z,38.22
2023-01-31T06:09:11.875Z,22.52
2023-01-31T06:11:38.824Z,23.27
2023-01-31T06:14:06.686Z,23.73
2023-01-31T06:16:33.706Z,24.08
2023-01-31T06:19:01.878Z,17.55
2023-01-31T06:21:29.221Z,27.08
2023-01-31T06:23:56.504Z,26.80
2023-01-31T06:26:24.467Z,28.55
2023-01-31T06:28:51.557Z,25.50
2023-01-31T06:31:18.984Z,20.88
2023-01-31T06:33:47.956Z,24.83
2023-01-31T06:36:19.170Z,24.70
2023-01-31T06:38:50.836Z,24.92
2023-01-31T06:41:18.810Z,27.35
2023-01-31T06:43:45.641Z,31.25
2023-01-31T06:46:12.818Z,25.60
2023-01-31T06:48:39.678Z,25.90
2023-01-31T06:51:06.599Z,28.25
2023-01-31T06:53:33.522Z,28.80
2023-01-31T06:56:00.490Z,27.13
2023-01-31T06:58:28.126Z,26.75
2023-01-31T07:00:55.086Z,20.02
2023-01-31T07:03:21.893Z,28.70
2023-01-31T07:05:48.866Z,23.58
2023-01-31T07:08:15.800Z,29.70
2023-01-31T07:10:42.778Z,27.27
2023-01-31T07:13:09.679Z,20.80
2023-01-31T07:15:36.607Z,26.70
2023-01-31T07:18:03.531Z,23.80
2023-01-31T07:20:30.469Z,25.70
2023-01-31T07:22:58.508Z,29.10
2023-01-31T07:25:26.702Z,27.83
2023-01-31T07:27:53.732Z,25.35
2023-01-31T07:30:20.735Z,27.50
2023-01-31T07:32:47.615Z,25.33
2023-01-31T07:35:14.662Z,30.52
2023-01-31T07:37:43.525Z,24.65
2023-01-31T07:40:15.240Z,25.90
2023-01-31T07:42:42.424Z,32.17
2023-01-31T07:45:22.760Z,23.30
2023-01-31T07:47:51.039Z,37.30
2023-01-31T07:50:18.419Z,26.33
2023-01-31T07:52:45.591Z,26.02
2023-01-31T07:55:12.454Z,36.20
2023-01-31T07:57:39.351Z,22.20
2023-01-31T08:00:26.869Z,39.53
2023-01-31T08:03:12.444Z,32.40
2023-01-31T08:05:39.351Z,39.72
2023-01-31T08:08:12.073Z,26.08
2023-01-31T08:10:39.317Z,33.13
2023-01-31T08:13:06.612Z,25.73
2023-01-31T08:15:34.018Z,27.20
2023-01-31T08:18:01.000Z,32.08
2023-01-31T08:20:28.051Z,25.80
2023-01-31T08:22:59.758Z,35.42
2023-01-31T08:25:29.308Z,28.00
2023-01-31T08:28:00.522Z,36.58
2023-01-31T08:30:28.719Z,34.67
2023-01-31T08:32:55.947Z,25.65
2023-01-31T08:35:23.127Z,39.85
2023-01-31T08:37:50.039Z,37.28
2023-01-31T08:40:17.180Z,28.98
2023-01-31T08:42:44.041Z,24.83
2023-01-31T08:45:12.257Z,31.38
2023-01-31T08:47:40.265Z,30.20
2023-01-31T08:50:15.870Z,30.60
2023-01-31T08:53:09.419Z,29.20
2023-01-31T08:55:36.709Z,34.75
2023-01-31T08:58:06.864Z,27.08
2023-01-31T09:00:34.111Z,28.48
2023-01-31T09:03:01.428Z,30.30
2023-01-31T09:05:31.822Z,32.28
2023-01-31T09:07:59.227Z,30.55
2023-01-31T09:10:26.068Z,26.13
2023-01-31T09:12:53.008Z,30.75
2023-01-31T09:15:20.347Z,30.77
2023-01-31T09:17:47.477Z,29.08
2023-01-31T09:20:14.297Z,25.55
2023-01-31T09:22:41.350Z,24.48
2023-01-31T09:25:09.016Z,27.02
2023-01-31T09:27:38.495Z,25.38
2023-01-31T09:30:10.703Z,26.48
2023-01-31T09:32:38.741Z,27.45
2023-01-31T09:35:05.968Z,26.63
2023-01-31T09:37:33.387Z,27.58
2023-01-31T09:40:00.275Z,33.60
2023-01-31T09:42:30.871Z,36.45
2023-01-31T09:45:10.290Z,21.20
2023-01-31T09:47:40.678Z,26.27
2023-01-31T09:50:40.595Z,23.77
2023-01-31T09:53:15.421Z,25.50
2023-01-31T09:56:06.695Z,30.67
2023-01-31T09:58:53.955Z,21.52
2023-01-31T10:01:39.211Z,20.88
2023-01-31T10:04:29.414Z,28.67
2023-01-31T10:07:06.797Z,16.25
2023-01-31T10:10:06.121Z,24.60
2023-01-31T10:12:40.805Z,24.25
2023-01-31T10:15:19.789Z,29.35
2023-01-31T10:17:57.712Z,28.55
2023-01-31T10:20:43.004Z,20.90
2023-01-31T10:23:26.010Z,25.88
2023-01-31T10:25:59.239Z,23.85
2023-01-31T10:28:38.096Z,27.00
2023-01-31T10:31:28.250Z,25.67
2023-01-31T10:34:34.695Z,28.17
2023-01-31T10:37:04.441Z,21.33
2023-01-31T10:39:37.534Z,18.65
2023-01-31T10:42:26.481Z,23.40
2023-01-31T10:45:09.840Z,24.98
2023-01-31T10:47:41.467Z,18.10
2023-01-31T10:50:19.090Z,21.98
2023-01-31T10:53:00.846Z,25.77
2023-01-31T10:55:48.942Z,20.05
2023-01-31T10:58:19.542Z,34.25
2023-01-31T11:00:49.286Z,18.75
2023-01-31T11:03:16.790Z,30.70
2023-01-31T11:05:54.039Z,17.15
2023-01-31T11:08:27.398Z,34.25
2023-01-31T11:10:57.163Z,24.77
2023-01-31T11:13:24.262Z,28.25
2023-01-31T11:15:54.444Z,19.88
2023-01-31T11:18:35.080Z,27.58
2023-01-31T11:21:03.639Z,21.52
2023-01-31T11:23:34.103Z,25.63
2023-01-31T11:26:01.470Z,25.13
2023-01-31T11:28:38.479Z,26.02
2023-01-31T11:31:16.597Z,23.52
2023-01-31T11:33:55.401Z,19.33
2023-01-31T11:36:26.892Z,27.63
2023-01-31T11:38:55.026Z,15.10
2023-01-31T11:41:34.004Z,18.95
2023-01-31T11:44:07.033Z,25.45
2023-01-31T11:46:46.346Z,21.90
2023-01-31T11:49:21.020Z,16.15
2023-01-31T11:51:49.226Z,26.70
2023-01-31T11:54:21.978Z,19.73
2023-01-31T11:56:49.583Z,21.17
2023-01-31T11:59:21.592Z,24.38
2023-01-31T12:01:54.115Z,18.80
2023-01-31T12:04:40.096Z,29.88
2023-01-31T12:09:48.309Z,29.27
2023-01-31T12:12:35.339Z,21.85
2023-01-31T12:15:14.732Z,24.45
2023-01-31T12:17:47.555Z,28.85
2023-01-31T12:20:31.420Z,32.70
2023-01-31T12:23:31.058Z,32.28
2023-01-31T12:26:13.656Z,34.28
2023-01-31T12:28:51.104Z,24.15
2023-01-31T12:31:58.680Z,21.73
2023-01-31T12:35:01.691Z,32.33
2023-01-31T12:37:45.693Z,25.88
2023-01-31T12:40:30.672Z,27.33
2023-01-31T12:43:04.548Z,19.90
2023-01-31T12:46:10.077Z,27.98
2023-01-31T12:48:59.602Z,19.25
2023-01-31T12:51:38.783Z,22.95
2023-01-31T12:54:11.456Z,21.20
2023-01-31T12:56:44.639Z,24.48
2023-01-31T12:59:40.307Z,21.83
2023-01-31T13:02:31.451Z,20.85
2023-01-31T13:05:21.515Z,27.85
2023-01-31T13:08:17.850Z,15.32
2023-01-31T13:10:50.624Z,17.35
2023-01-31T13:13:24.450Z,22.15
2023-01-31T13:16:22.801Z,23.52
2023-01-31T13:18:53.202Z,23.35
2023-01-31T13:21:27.238Z,25.90
2023-01-31T13:23:59.640Z,22.17
2023-01-31T13:26:33.546Z,27.25
2023-01-31T13:29:30.998Z,28.58
2023-01-31T13:32:01.916Z,20.00
2023-01-31T13:34:52.150Z,17.55
2023-01-31T13:37:21.465Z,19.88
2023-01-31T13:39:51.812Z,20.20
2023-01-31T13:42:19.187Z,17.75
2023-01-31T13:44:47.507Z,23.65
2023-01-31T13:47:46.217Z,20.27
2023-01-31T13:50:35.420Z,18.92
2023-01-31T13:53:17.154Z,12.40
2023-01-31T13:55:47.500Z,25.38
2023-01-31T13:58:21.373Z,20.40
2023-01-31T14:00:59.322Z,20.90
2023-01-31T14:03:26.573Z,27.00
2023-01-31T14:05:56.983Z,22.05
2023-01-31T14:08:30.014Z,24.30
2023-01-31T14:10:59.512Z,21.83
2023-01-31T14:13:42.152Z,22.85
2023-01-31T14:16:33.966Z,20.70
2023-01-31T14:19:00.988Z,18.80
2023-01-31T14:21:30.844Z,20.33
2023-01-31T14:24:04.066Z,16.13
2023-01-31T14:26:43.222Z,22.48
2023-01-31T14:29:25.129Z,19.02
2023-01-31T14:31:54.814Z,23.52
2023-01-31T14:34:26.187Z,23.20
2023-01-31T14:37:38.297Z,23.92
2023-01-31T14:40:34.131Z,19.95
2023-01-31T14:43:09.936Z,13.85
2023-01-31T14:45:43.914Z,20.48
2023-01-31T14:48:38.978Z,17.98
2023-01-31T14:51:18.319Z,19.88
2023-01-31T14:54:06.670Z,17.38
2023-01-31T14:56:39.546Z,19.63
2023-01-31T14:59:21.873Z,21.65
2023-01-31T15:01:49.067Z,17.33
2023-01-31T15:04:22.392Z,25.65
2023-01-31T15:06:52.532Z,19.30
2023-01-31T15:09:24.425Z,19.40
2023-01-31T15:11:55.361Z,23.58
2023-01-31T15:14:45.065Z,25.02
2023-01-31T15:17:34.389Z,20.40
2023-01-31T15:20:30.185Z,26.70
2023-01-31T15:23:04.672Z,18.85
2023-01-31T15:25:44.703Z,18.38
2023-01-31T15:28:22.186Z,27.75
2023-01-31T15:30:49.651Z,22.10
2023-01-31T15:33:38.155Z,18.40
2023-01-31T15:36:14.097Z,26.02
2023-01-31T15:38:49.110Z,13.73
2023-01-31T15:41:26.345Z,14.98
2023-01-31T15:43:57.029Z,20.23
2023-01-31T15:46:26.724Z,19.73
2023-01-31T15:48:54.075Z,26.02
2023-01-31T15:51:21.662Z,15.27
2023-01-31T15:53:49.295Z,25.00
2023-01-31T15:56:24.422Z,17.10
2023-01-31T15:58:54.980Z,20.48
2023-01-31T16:01:22.089Z,20.45
2023-01-31T16:03:52.836Z,19.40
2023-01-31T16:06:40.243Z,21.63
2023-01-31T16:09:22.060Z,19.55
2023-01-31T16:11:49.296Z,18.60
2023-01-31T16:14:16.864Z,21.98
2023-01-31T16:16:47.911Z,21.58
2023-01-31T16:19:38.842Z,22.90
2023-01-31T16:22:38.502Z,26.17
2023-01-31T16:25:05.755Z,24.83
2023-01-31T16:27:43.091Z,22.15
2023-01-31T16:30:16.872Z,27.50
2023-01-31T16:32:44.191Z,36.97
2023-01-31T16:35:26.998Z,32.03
2023-01-31T16:38:16.991Z,25.27
2023-01-31T16:40:50.319Z,32.42
2023-01-31T16:43:20.025Z,30.00
2023-01-31T16:45:53.072Z,31.92
2023-01-31T16:48:25.971Z,34.05
2023-01-31T16:51:04.845Z,30.45
2023-01-31T16:53:35.455Z,28.08
2023-01-31T16:56:15.146Z,33.58
2023-01-31T16:58:44.451Z,29.98
2023-01-31T17:01:18.224Z,34.28
2023-01-31T17:03:47.672Z,35.80
2023-01-31T17:06:22.398Z,36.10
2023-01-31T17:08:49.673Z,37.65
2023-01-31T17:11:28.994Z,32.05
2023-01-31T17:14:05.232Z,26.55
2023-01-31T17:16:32.975Z,26.83
2023-01-31T17:19:00.593Z,25.70
2023-01-31T17:21:28.642Z,35.67
2023-01-31T17:23:55.696Z,26.83
2023-01-31T17:26:24.068Z,33.15
2023-01-31T17:29:01.432Z,28.88
2023-01-31T17:31:31.428Z,39.00
2023-01-31T17:33:58.737Z,42.47
2023-01-31T17:36:25.634Z,33.15
2023-01-31T17:38:53.171Z,40.20
2023-01-31T17:41:24.818Z,35.53
2023-01-31T17:43:52.120Z,40.65
2023-01-31T17:46:20.152Z,45.33
2023-01-31T17:48:47.605Z,35.17
2023-01-31T17:51:14.893Z,37.35
2023-01-31T17:53:49.378Z,29.70
2023-01-31T17:58:44.691Z,31.42
2023-01-31T18:01:14.239Z,30.30
2023-01-31T18:03:41.550Z,35.22
2023-01-31T18:06:09.714Z,39.53
2023-01-31T18:08:37.112Z,27.98
2023-01-31T18:11:10.480Z,39.80
2023-01-31T18:13:48.544Z,30.23
2023-01-31T18:16:19.972Z,28.85
2023-01-31T18:18:50.598Z,36.00
2023-01-31T18:21:21.974Z,27.23
2023-01-31T18:24:00.160Z,36.92
2023-01-31T18:26:30.395Z,36.97
2023-01-31T18:28:59.604Z,43.42
2023-01-31T18:31:26.967Z,49.42
2023-01-31T18:33:54.823Z,39.60
2023-01-31T18:36:23.349Z,37.30
2023-01-31T18:38:52.229Z,38.25
2023-01-31T18:41:21.255Z,49.85
2023-01-31T18:43:50.666Z,47.00
2023-01-31T18:46:17.913Z,43.15
2023-01-31T18:48:48.355Z,45.20
2023-01-31T18:51:17.159Z,39.83
2023-01-31T18:53:46.656Z,41.92
2023-01-31T18:56:19.690Z,28.85
2023-01-31T18:58:50.183Z,41.70
2023-01-31T19:01:20.475Z,32.88
2023-01-31T19:03:50.248Z,38.35
2023-01-31T19:06:20.451Z,33.72
2023-01-31T19:08:49.191Z,25.70
2023-01-31T19:11:17.888Z,36.03
2023-01-31T19:13:45.240Z,31.35
2023-01-31T19:16:14.799Z,29.25
2023-01-31T19:18:41.921Z,31.70
2023-01-31T19:21:26.455Z,22.85
2023-01-31T19:23:59.825Z,29.45
2023-01-31T19:26:27.922Z,20.88
2023-01-31T19:28:55.900Z,19.45
2023-01-31T19:31:25.153Z,22.25
2023-01-31T19:33:57.298Z,32.17
2023-01-31T19:36:27.096Z,26.58
2023-01-31T19:38:54.380Z,21.50
2023-01-31T19:41:23.665Z,19.60
2023-01-31T19:43:53.088Z,25.92
2023-01-31T19:46:22.743Z,14.13
2023-01-31T19:48:50.115Z,25.90
2023-01-31T19:51:20.013Z,31.05
2023-01-31T19:53:48.237Z,23.33
2023-01-31T19:56:16.025Z,18.52
2023-01-31T19:58:43.772Z,24.40
2023-01-31T20:01:16.795Z,26.77
2023-01-31T20:03:44.811Z,20.42
2023-01-31T20:06:17.077Z,23.55
2023-01-31T20:08:48.352Z,21.35
2023-01-31T20:11:15.284Z,26.42
2023-01-31T20:13:42.243Z,26.70
2023-01-31T20:16:11.895Z,23.67
2023-01-31T20:18:40.626Z,20.27
2023-01-31T20:21:08.183Z,26.15
2023-01-31T20:23:36.520Z,24.52
2023-01-31T20:26:03.659Z,27.40
2023-01-31T20:28:33.650Z,17.85
2023-01-31T20:31:11.838Z,23.33
2023-01-31T20:33:39.023Z,21.00
2023-01-31T20:36:07.007Z,22.33
2023-01-31T20:38:42.130Z,27.02
2023-01-31T20:41:09.356Z,22.50
2023-01-31T20:43:37.025Z,20.73
2023-01-31T20:46:06.604Z,29.17
2023-01-31T20:48:33.746Z,28.20
2023-01-31T20:51:01.026Z,30.23
2023-01-31T20:53:28.827Z,35.33
2023-01-31T20:56:01.335Z,35.55
2023-01-31T20:58:32.001Z,28.25
2023-01-31T21:01:00.275Z,30.77
2023-01-31T21:03:27.846Z,42.35
2023-01-31T21:05:58.744Z,32.40
2023-01-31T21:08:26.666Z,31.23
2023-01-31T21:10:56.720Z,27.00
2023-01-31T21:13:25.265Z,27.10
2023-01-31T21:15:57.620Z,23.63
2023-01-31T21:18:30.489Z,26.35
2023-01-31T21:20:58.252Z,22.98
2023-01-31T21:23:25.785Z,20.17
2023-01-31T21:25:53.274Z,29.02
2023-01-31T21:28:20.258Z,24.95
2023-01-31T21:31:00.957Z,23.05
2023-01-31T21:33:29.519Z,26.42
2023-01-31T21:35:58.399Z,19.48
2023-01-31T21:38:25.744Z,30.60
2023-01-31T21:41:13.271Z,31.63
2023-01-31T21:43:42.952Z,28.95
2023-01-31T21:46:11.883Z,25.75
2023-01-31T21:48:41.845Z,22.73
2023-01-31T21:51:11.542Z,17.67
2023-01-31T21:53:39.747Z,25.95
2023-01-31T21:56:16.395Z,23.85
2023-01-31T21:58:44.487Z,28.13
2023-01-31T22:01:13.294Z,18.40
2023-01-31T22:03:45.329Z,37.22
2023-01-31T22:06:14.030Z,28.67
2023-01-31T22:08:41.565Z,31.27
2023-01-31T22:11:10.816Z,31.35
2023-01-31T22:13:41.369Z,24.02
2023-01-31T22:16:10.516Z,20.27
2023-01-31T22:18:38.405Z,23.95
2023-01-31T22:21:15.012Z,21.00
2023-01-31T22:23:46.596Z,30.63
2023-01-31T22:26:26.587Z,37.75
2023-01-31T22:28:59.552Z,34.28
2023-01-31T22:31:26.861Z,29.23
2023-01-31T22:33:56.264Z,25.48
2023-01-31T22:36:26.927Z,26.95
2023-01-31T22:38:55.049Z,25.08
2023-01-31T22:41:24.495Z,26.15
2023-01-31T22:43:52.914Z,28.00
2023-01-31T22:46:26.670Z,25.25
2023-01-31T22:48:54.917Z,25.02
2023-01-31T22:51:26.263Z,26.27
2023-01-31T22:53:57.883Z,22.70
2023-01-31T22:56:32.226Z,29.95
2023-01-31T22:59:04.549Z,30.98
2023-01-31T23:01:37.292Z,23.13
2023-01-31T23:04:11.558Z,20.85
2023-01-31T23:06:39.300Z,28.27
2023-01-31T23:09:06.568Z,29.80
2023-01-31T23:11:33.884Z,31.85
2023-01-31T23:14:00.906Z,31.23
2023-01-31T23:16:46.834Z,26.55
2023-01-31T23:19:15.155Z,31.77
2023-01-31T23:21:42.941Z,30.83
2023-01-31T23:24:11.376Z,27.13
2023-01-31T23:26:38.863Z,23.70
2023-01-31T23:29:06.637Z,28.52
2023-01-31T23:31:34.405Z,30.77
2023-01-31T23:34:02.046Z,34.72
2023-01-31T23:36:29.279Z,28.50
2023-01-31T23:38:57.100Z,35.63
2023-01-31T23:41:27.201Z,29.13
2023-01-31T23:43:54.625Z,32.63
2023-01-31T23:46:22.105Z,29.98
2023-01-31T23:48:49.690Z,30.60
2023-01-31T23:51:17.195Z,30.38
2023-01-31T23:53:44.698Z,30.02
2023-01-31T23:56:11.996Z,28.55
2023-01-31T23:58:39.053Z,28.63
